createdAt,value
2018-08-17T00:02:20.137Z,20.44
2018-08-17T00:04:47.426Z,20.52
2018-08-17T00:07:14.885Z,20.47
2018-08-17T00:09:42.321Z,20.42
2018-08-17T00:12:09.636Z,20.31
2018-08-17T00:14:36.952Z,19.99
2018-08-17T00:17:04.311Z,19.77
2018-08-17T00:19:31.577Z,19.68
2018-08-17T00:21:58.891Z,19.63
2018-08-17T00:24:26.494Z,19.54
2018-08-17T00:26:54.031Z,19.52
2018-08-17T00:29:21.347Z,19.39
2018-08-17T00:31:48.645Z,19.36
2018-08-17T00:34:15.901Z,19.44
2018-08-17T00:36:43.240Z,19.17
2018-08-17T00:39:16.736Z,18.58
2018-08-17T00:41:44.061Z,19.39
2018-08-17T00:44:11.410Z,19.34
2018-08-17T00:46:38.827Z,19.51
2018-08-17T00:49:06.378Z,19.66
2018-08-17T00:51:33.703Z,19.73
2018-08-17T00:54:02.069Z,19.76
2018-08-17T00:56:29.352Z,19.79
2018-08-17T00:58:56.659Z,19.76
2018-08-17T01:01:24.072Z,19.72
2018-08-17T01:03:51.483Z,19.77
2018-08-17T01:06:18.883Z,19.79
2018-08-17T01:08:46.141Z,19.85
2018-08-17T01:11:13.530Z,19.80
2018-08-17T01:13:44.877Z,19.72
2018-08-17T01:16:12.169Z,19.88
2018-08-17T01:18:51.472Z,19.90
2018-08-17T01:21:18.819Z,19.92
2018-08-17T01:23:46.132Z,19.80
2018-08-17T01:26:13.474Z,19.68
2018-08-17T01:28:40.822Z,19.60
2018-08-17T01:31:08.124Z,19.59
2018-08-17T01:33:35.375Z,19.52
2018-08-17T01:36:02.664Z,19.50
2018-08-17T01:38:30.048Z,19.57
2018-08-17T01:40:57.338Z,19.57
2018-08-17T01:43:24.712Z,19.60
2018-08-17T01:45:52.027Z,19.61
2018-08-17T01:48:19.324Z,19.57
2018-08-17T01:50:46.593Z,19.60
2018-08-17T01:53:13.931Z,19.55
2018-08-17T01:55:41.201Z,19.34
2018-08-17T01:58:08.595Z,19.27
2018-08-17T02:00:36.004Z,19.24
2018-08-17T02:03:03.451Z,19.27
2018-08-17T02:05:30.863Z,19.21
2018-08-17T02:07:58.238Z,19.17
2018-08-17T02:10:25.556Z,19.14
2018-08-17T02:12:52.908Z,19.15
2018-08-17T02:15:20.196Z,19.16
2018-08-17T02:17:47.513Z,19.16
2018-08-17T02:20:14.788Z,19.22
2018-08-17T02:22:42.366Z,19.25
2018-08-17T02:25:09.628Z,19.32
2018-08-17T02:27:36.842Z,19.31
2018-08-17T02:30:04.724Z,19.37
2018-08-17T02:32:32.032Z,19.39
2018-08-17T02:34:59.445Z,19.46
2018-08-17T02:37:26.782Z,19.46
2018-08-17T02:39:54.025Z,19.45
2018-08-17T02:42:21.298Z,19.45
2018-08-17T02:44:48.683Z,19.44
2018-08-17T02:47:15.973Z,19.43
2018-08-17T02:49:43.362Z,19.39
2018-08-17T02:55:03.817Z,19.28
2018-08-17T02:57:31.084Z,19.33
2018-08-17T02:59:58.381Z,19.32
2018-08-17T03:02:25.648Z,19.22
2018-08-17T03:04:52.856Z,19.27
2018-08-17T03:07:20.182Z,19.29
2018-08-17T03:09:47.436Z,19.36
2018-08-17T03:12:14.757Z,19.39
2018-08-17T03:14:42.018Z,19.50
2018-08-17T03:17:09.242Z,19.48
2018-08-17T03:19:36.495Z,19.53
2018-08-17T03:22:03.877Z,19.44
2018-08-17T03:24:31.126Z,19.46
2018-08-17T03:26:58.396Z,19.50
2018-08-17T03:29:25.712Z,19.59
2018-08-17T03:31:53.726Z,19.53
2018-08-17T03:34:21.030Z,19.55
2018-08-17T03:36:48.322Z,19.56
2018-08-17T03:39:15.601Z,19.68
2018-08-17T03:41:42.850Z,19.78
2018-08-17T03:44:10.168Z,19.83
2018-08-17T03:46:37.420Z,19.85
2018-08-17T03:49:04.945Z,19.82
2018-08-17T03:51:32.248Z,19.87
2018-08-17T03:53:59.571Z,19.75
2018-08-17T03:56:26.829Z,19.77
2018-08-17T03:58:54.086Z,19.72
2018-08-17T04:01:21.318Z,19.71
2018-08-17T04:03:48.544Z,19.89
2018-08-17T04:06:15.787Z,20.02
2018-08-17T04:08:43.040Z,20.11
2018-08-17T04:11:10.305Z,20.14
2018-08-17T04:13:37.537Z,20.12
2018-08-17T04:16:04.852Z,20.01
2018-08-17T04:18:32.188Z,19.91
2018-08-17T04:20:59.475Z,19.92
2018-08-17T04:24:56.290Z,19.86
2018-08-17T04:27:23.561Z,19.77
2018-08-17T04:29:50.852Z,19.65
2018-08-17T04:32:18.161Z,19.69
2018-08-17T04:34:45.429Z,19.65
2018-08-17T04:37:12.662Z,19.67
2018-08-17T04:39:39.914Z,19.65
2018-08-17T04:42:07.575Z,19.64
2018-08-17T04:45:59.451Z,19.65
2018-08-17T04:48:26.724Z,19.62
2018-08-17T04:50:53.990Z,19.70
2018-08-17T04:53:21.311Z,19.76
2018-08-17T04:55:48.607Z,19.87
2018-08-17T04:58:15.814Z,19.94
2018-08-17T05:00:43.142Z,19.88
2018-08-17T05:03:10.325Z,19.82
2018-08-17T05:05:37.586Z,19.80
2018-08-17T05:08:04.853Z,19.85
2018-08-17T05:10:32.126Z,19.93
2018-08-17T05:12:59.368Z,19.99
2018-08-17T05:15:26.666Z,20.05
2018-08-17T05:17:53.878Z,20.07
2018-08-17T05:20:21.161Z,20.10
2018-08-17T05:22:48.493Z,20.15
2018-08-17T05:25:15.781Z,20.15
2018-08-17T05:27:43.142Z,20.27
2018-08-17T05:30:10.549Z,20.33
2018-08-17T05:32:37.793Z,20.33
2018-08-17T05:35:05.284Z,20.35
2018-08-17T05:37:32.597Z,20.35
2018-08-17T05:39:59.896Z,20.32
2018-08-17T05:42:27.180Z,20.37
2018-08-17T05:44:54.431Z,20.32
2018-08-17T05:47:21.734Z,20.34
2018-08-17T05:49:48.995Z,20.50
2018-08-17T05:52:17.703Z,20.59
2018-08-17T05:54:45.926Z,20.77
2018-08-17T05:57:13.154Z,20.78
2018-08-17T05:59:40.431Z,20.78
2018-08-17T06:02:07.721Z,20.77
2018-08-17T06:04:35.012Z,20.81
2018-08-17T06:07:02.317Z,20.70
2018-08-17T06:09:29.546Z,20.71
2018-08-17T06:11:56.822Z,20.72
2018-08-17T06:14:24.130Z,20.85
2018-08-17T06:16:51.481Z,21.03
2018-08-17T06:19:18.755Z,20.97
2018-08-17T06:21:46.014Z,21.11
2018-08-17T06:24:13.243Z,21.34
2018-08-17T06:26:40.523Z,21.72
2018-08-17T06:29:07.887Z,22.11
2018-08-17T06:31:35.305Z,22.23
2018-08-17T06:34:02.505Z,22.41
2018-08-17T06:36:29.774Z,22.60
2018-08-17T06:38:57.171Z,22.85
2018-08-17T06:41:24.445Z,23.03
2018-08-17T06:43:51.763Z,23.21
2018-08-17T06:46:19.032Z,23.31
2018-08-17T06:48:46.327Z,23.44
2018-08-17T06:51:13.653Z,23.55
2018-08-17T06:53:40.842Z,23.45
2018-08-17T06:56:08.251Z,23.49
2018-08-17T06:58:35.516Z,23.53
2018-08-17T07:01:02.873Z,23.60
2018-08-17T07:03:30.353Z,23.77
2018-08-17T07:05:57.973Z,24.03
2018-08-17T07:08:25.208Z,24.31
2018-08-17T07:10:52.473Z,24.55
2018-08-17T07:13:19.769Z,24.74
2018-08-17T07:15:47.012Z,24.99
2018-08-17T07:18:14.340Z,25.10
2018-08-17T07:20:41.608Z,25.30
2018-08-17T07:23:08.891Z,25.70
2018-08-17T07:25:36.213Z,26.11
2018-08-17T07:28:03.575Z,26.56
2018-08-17T07:30:30.828Z,26.68
2018-08-17T07:32:58.178Z,27.09
2018-08-17T07:35:25.482Z,27.38
2018-08-17T07:37:52.701Z,27.83
2018-08-17T07:40:20.027Z,27.52
2018-08-17T07:42:47.270Z,27.30
2018-08-17T07:45:14.568Z,27.44
2018-08-17T07:47:41.892Z,27.44
2018-08-17T07:50:13.934Z,27.55
2018-08-17T07:52:41.242Z,27.54
2018-08-17T07:55:08.473Z,27.73
2018-08-17T07:57:35.787Z,27.88
2018-08-17T08:00:03.410Z,27.99
2018-08-17T08:02:30.659Z,27.95
2018-08-17T08:04:57.939Z,27.78
2018-08-17T08:07:25.178Z,27.88
2018-08-17T08:09:52.521Z,28.06
2018-08-17T08:12:19.807Z,28.32
2018-08-17T08:14:47.099Z,28.52
2018-08-17T08:17:14.410Z,28.71
2018-08-17T08:19:41.659Z,28.90
2018-08-17T08:22:08.958Z,29.20
2018-08-17T08:24:36.745Z,29.30
2018-08-17T08:27:05.149Z,29.61
2018-08-17T08:29:32.377Z,29.74
2018-08-17T08:31:59.608Z,29.58
2018-08-17T08:34:27.181Z,29.32
2018-08-17T08:36:54.513Z,29.27
2018-08-17T08:39:21.770Z,29.30
2018-08-17T08:41:49.093Z,29.60
2018-08-17T08:44:16.511Z,29.74
2018-08-17T08:46:43.764Z,29.81
2018-08-17T08:49:11.066Z,30.01
2018-08-17T08:51:38.336Z,30.51
2018-08-17T08:54:05.692Z,30.93
2018-08-17T08:56:32.958Z,30.93
2018-08-17T08:59:00.234Z,30.84
2018-08-17T09:01:27.572Z,30.97
2018-08-17T09:03:54.962Z,31.10
2018-08-17T09:06:22.761Z,31.25
2018-08-17T09:08:50.159Z,31.04
2018-08-17T09:11:17.368Z,30.60
2018-08-17T09:13:44.767Z,30.16
2018-08-17T09:16:11.985Z,30.17
2018-08-17T09:18:39.289Z,30.58
2018-08-17T09:21:06.622Z,30.90
2018-08-17T09:23:33.924Z,31.13
2018-08-17T09:27:25.742Z,31.34
2018-08-17T09:29:52.974Z,31.37
2018-08-17T09:32:20.316Z,31.38
2018-08-17T09:34:47.588Z,31.46
2018-08-17T09:37:14.887Z,31.63
2018-08-17T09:39:42.156Z,31.85
2018-08-17T09:42:09.480Z,31.67
2018-08-17T09:44:36.719Z,31.41
2018-08-17T09:47:04.021Z,31.14
2018-08-17T09:49:31.238Z,31.04
2018-08-17T09:51:58.554Z,31.43
2018-08-17T09:54:25.831Z,31.68
2018-08-17T09:56:53.149Z,32.03
2018-08-17T09:59:20.441Z,32.34
2018-08-17T10:01:53.095Z,32.45
2018-08-17T10:04:26.005Z,32.57
2018-08-17T10:06:58.824Z,32.71
2018-08-17T10:09:30.664Z,32.95
2018-08-17T10:11:58.007Z,32.60
2018-08-17T10:14:25.312Z,32.76
2018-08-17T10:16:52.619Z,32.85
2018-08-17T10:19:19.941Z,32.68
2018-08-17T10:21:51.406Z,32.81
2018-08-17T10:24:18.739Z,33.12
2018-08-17T10:26:47.216Z,33.05
2018-08-17T10:29:14.481Z,32.86
2018-08-17T10:31:41.756Z,32.42
2018-08-17T10:34:09.347Z,32.52
2018-08-17T10:36:36.594Z,32.87
2018-08-17T10:39:04.732Z,33.24
2018-08-17T10:41:32.024Z,33.44
2018-08-17T10:43:59.432Z,32.98
2018-08-17T10:46:26.753Z,32.56
2018-08-17T10:48:54.275Z,32.35
2018-08-17T10:51:21.486Z,32.20
2018-08-17T10:53:48.730Z,31.80
2018-08-17T10:56:15.927Z,31.69
2018-08-17T10:58:43.234Z,31.37
2018-08-17T11:01:10.497Z,31.10
2018-08-17T11:03:37.812Z,30.72
2018-08-17T11:06:05.423Z,30.56
2018-08-17T11:08:32.684Z,30.78
2018-08-17T11:11:00.124Z,30.91
2018-08-17T11:13:28.265Z,31.67
2018-08-17T11:15:55.549Z,32.34
2018-08-17T11:18:22.791Z,32.98
2018-08-17T11:20:50.413Z,33.31
2018-08-17T11:23:17.695Z,33.63
2018-08-17T11:25:44.974Z,33.86
2018-08-17T11:28:12.254Z,34.28
2018-08-17T11:30:39.630Z,34.41
2018-08-17T11:33:07.216Z,34.39
2018-08-17T11:35:34.493Z,34.48
2018-08-17T11:38:01.785Z,34.68
2018-08-17T11:40:29.037Z,34.73
2018-08-17T11:42:57.004Z,35.01
2018-08-17T11:45:25.534Z,35.32
2018-08-17T11:47:53.610Z,35.27
2018-08-17T11:50:22.027Z,34.71
2018-08-17T11:52:51.029Z,35.05
2018-08-17T11:55:18.806Z,35.27
2018-08-17T11:57:46.319Z,35.06
2018-08-17T12:00:13.625Z,35.07
2018-08-17T12:02:40.960Z,35.63
2018-08-17T12:05:08.883Z,35.89
2018-08-17T12:07:36.205Z,35.95
2018-08-17T12:10:04.545Z,35.78
2018-08-17T12:12:34.040Z,36.10
2018-08-17T12:15:01.795Z,36.17
2018-08-17T12:17:29.271Z,36.04
2018-08-17T12:19:56.624Z,36.04
2018-08-17T12:22:23.859Z,36.01
2018-08-17T12:24:51.227Z,36.47
2018-08-17T12:27:18.554Z,36.44
2018-08-17T12:29:45.849Z,36.63
2018-08-17T12:32:13.177Z,36.93
2018-08-17T12:34:40.412Z,36.70
2018-08-17T12:37:07.667Z,36.39
2018-08-17T12:39:35.064Z,36.71
2018-08-17T12:42:02.519Z,36.83
2018-08-17T12:44:29.941Z,37.00
2018-08-17T12:46:57.302Z,37.16
2018-08-17T12:49:25.268Z,36.67
2018-08-17T12:51:52.494Z,36.85
2018-08-17T12:54:25.600Z,36.99
2018-08-17T12:56:53.145Z,37.29
2018-08-17T12:59:20.496Z,37.57
2018-08-17T13:01:47.825Z,37.32
2018-08-17T13:04:15.278Z,36.20
2018-08-17T13:06:42.653Z,36.39
2018-08-17T13:09:09.890Z,36.20
2018-08-17T13:11:41.781Z,36.30
2018-08-17T13:14:12.337Z,36.69
2018-08-17T13:16:40.280Z,36.21
2018-08-17T13:19:07.909Z,36.50
2018-08-17T13:21:35.260Z,36.69
2018-08-17T13:24:02.665Z,37.01
2018-08-17T13:26:29.989Z,36.82
2018-08-17T13:28:57.347Z,36.92
2018-08-17T13:31:29.861Z,36.97
2018-08-17T13:33:57.221Z,37.46
2018-08-17T13:36:24.479Z,36.38
2018-08-17T13:38:52.270Z,36.59
2018-08-17T13:41:19.564Z,37.22
2018-08-17T13:43:46.921Z,37.47
2018-08-17T13:46:14.494Z,37.64
2018-08-17T13:48:41.893Z,37.31
2018-08-17T13:51:09.197Z,37.26
2018-08-17T13:53:36.481Z,37.07
2018-08-17T13:56:03.832Z,36.72
2018-08-17T14:00:00.660Z,36.64
2018-08-17T14:02:27.976Z,36.11
2018-08-17T14:04:55.311Z,35.53
2018-08-17T14:07:22.612Z,35.83
2018-08-17T14:09:49.895Z,36.03
2018-08-17T14:12:17.268Z,35.78
2018-08-17T14:14:44.679Z,35.42
2018-08-17T14:17:12.286Z,35.09
2018-08-17T14:19:39.694Z,35.28
2018-08-17T14:22:07.186Z,35.21
2018-08-17T14:24:34.499Z,35.62
2018-08-17T14:27:01.988Z,35.95
2018-08-17T14:29:29.345Z,36.13
2018-08-17T14:31:56.696Z,35.97
2018-08-17T14:34:24.234Z,35.87
2018-08-17T14:36:51.712Z,35.27
2018-08-17T14:39:19.042Z,34.98
2018-08-17T14:41:53.774Z,35.07
2018-08-17T14:44:21.068Z,34.45
2018-08-17T14:46:48.355Z,33.95
2018-08-17T14:49:15.879Z,33.64
2018-08-17T14:51:43.243Z,33.47
2018-08-17T14:54:10.469Z,33.33
2018-08-17T14:56:37.790Z,33.21
2018-08-17T14:59:05.354Z,33.13
2018-08-17T15:01:32.676Z,33.00
2018-08-17T15:04:00.044Z,32.92
2018-08-17T15:06:27.280Z,32.67
2018-08-17T15:08:55.238Z,32.54
2018-08-17T15:11:22.577Z,32.26
2018-08-17T15:13:49.920Z,32.44
2018-08-17T15:16:17.270Z,32.39
2018-08-17T15:18:44.745Z,31.93
2018-08-17T15:21:12.184Z,31.75
2018-08-17T15:23:39.678Z,31.87
2018-08-17T15:26:07.104Z,31.55
2018-08-17T15:28:34.490Z,31.82
2018-08-17T15:31:01.738Z,32.06
2018-08-17T15:33:29.269Z,32.07
2018-08-17T15:35:56.563Z,31.88
2018-08-17T15:38:23.852Z,31.89
2018-08-17T15:40:51.173Z,31.76
2018-08-17T15:43:19.027Z,31.62
2018-08-17T15:45:48.246Z,31.46
2018-08-17T15:48:15.730Z,31.16
2018-08-17T15:50:42.927Z,31.29
2018-08-17T15:53:10.226Z,31.17
2018-08-17T15:55:37.531Z,31.18
2018-08-17T15:58:04.811Z,31.19
2018-08-17T16:00:32.079Z,31.39
2018-08-17T16:02:59.857Z,31.43
2018-08-17T16:05:27.246Z,31.36
2018-08-17T16:07:54.525Z,30.89
2018-08-17T16:10:21.926Z,30.61
2018-08-17T16:12:49.214Z,30.87
2018-08-17T16:15:16.605Z,31.29
2018-08-17T16:17:44.039Z,31.10
2018-08-17T16:20:12.251Z,30.41
2018-08-17T16:22:39.891Z,30.01
2018-08-17T16:25:08.201Z,29.51
2018-08-17T16:27:35.538Z,29.18
2018-08-17T16:30:03.066Z,29.03
2018-08-17T16:32:30.277Z,28.98
2018-08-17T16:34:57.513Z,28.79
2018-08-17T16:37:24.891Z,28.75
2018-08-17T16:40:01.941Z,28.79
2018-08-17T16:42:35.035Z,28.77
2018-08-17T16:45:22.267Z,28.67
2018-08-17T16:47:50.285Z,28.55
2018-08-17T16:50:17.578Z,28.52
2018-08-17T16:53:16.047Z,28.64
2018-08-17T16:55:43.353Z,28.66
2018-08-17T16:58:11.176Z,28.52
2018-08-17T17:00:38.575Z,28.36
2018-08-17T17:03:06.914Z,28.27
2018-08-17T17:05:34.324Z,28.14
2018-08-17T17:08:01.564Z,28.12
2018-08-17T17:10:29.748Z,28.26
2018-08-17T17:13:03.031Z,28.21
2018-08-17T17:15:32.675Z,28.15
2018-08-17T17:18:05.729Z,28.19
2018-08-17T17:20:33.229Z,28.20
2018-08-17T17:23:08.061Z,28.07
2018-08-17T17:25:42.217Z,28.07
2018-08-17T17:28:10.433Z,27.85
2018-08-17T17:30:44.821Z,27.69
2018-08-17T17:33:12.199Z,27.52
2018-08-17T17:35:40.512Z,27.47
2018-08-17T17:38:08.817Z,27.27
2018-08-17T17:40:36.274Z,27.10
2018-08-17T17:43:03.958Z,26.89
2018-08-17T17:45:31.287Z,26.74
2018-08-17T17:47:59.481Z,26.78
2018-08-17T17:50:26.692Z,26.57
2018-08-17T17:53:06.604Z,26.37
2018-08-17T17:55:48.639Z,26.38
2018-08-17T17:58:20.639Z,26.23
2018-08-17T18:00:56.976Z,26.00
2018-08-17T18:03:25.402Z,25.98
2018-08-17T18:05:52.709Z,25.91
2018-08-17T18:08:19.938Z,25.90
2018-08-17T18:10:47.616Z,25.90
2018-08-17T18:13:14.992Z,25.75
2018-08-17T18:15:42.335Z,25.72
2018-08-17T18:18:09.617Z,25.50
2018-08-17T18:20:36.961Z,25.50
2018-08-17T18:23:05.440Z,25.46
2018-08-17T18:25:32.686Z,25.46
2018-08-17T18:27:59.926Z,25.46
2018-08-17T18:30:27.207Z,25.50
2018-08-17T18:32:54.451Z,25.48
2018-08-17T18:35:21.728Z,25.36
2018-08-17T18:37:49.017Z,25.35
2018-08-17T18:40:16.273Z,25.28
2018-08-17T18:42:43.547Z,25.28
2018-08-17T18:45:10.818Z,25.18
2018-08-17T18:47:38.160Z,25.11
2018-08-17T18:50:06.222Z,25.01
2018-08-17T18:52:33.704Z,24.93
2018-08-17T18:55:00.953Z,24.90
2018-08-17T18:57:28.159Z,24.82
2018-08-17T18:59:55.420Z,24.71
2018-08-17T19:02:22.688Z,24.66
2018-08-17T19:04:50.046Z,24.53
2018-08-17T19:07:17.339Z,24.54
2018-08-17T19:09:44.895Z,24.36
2018-08-17T19:12:12.295Z,24.25
2018-08-17T19:14:46.294Z,24.23
2018-08-17T19:17:19.315Z,24.26
2018-08-17T19:19:46.580Z,24.06
2018-08-17T19:25:44.969Z,23.94
2018-08-17T19:28:12.236Z,23.91
2018-08-17T19:30:39.455Z,23.80
2018-08-17T19:33:10.382Z,23.89
2018-08-17T19:35:43.397Z,23.85
2018-08-17T19:38:10.648Z,23.85
2018-08-17T19:40:37.955Z,23.89
2018-08-17T19:43:05.639Z,23.84
2018-08-17T19:45:32.918Z,23.90
2018-08-17T19:48:00.190Z,23.78
2018-08-17T19:50:27.457Z,23.80
2018-08-17T19:52:54.796Z,23.83
2018-08-17T19:55:22.026Z,23.77
2018-08-17T19:57:49.314Z,23.66
2018-08-17T20:00:16.702Z,23.60
2018-08-17T20:02:43.997Z,23.42
2018-08-17T20:05:11.234Z,23.45
2018-08-17T20:07:38.824Z,23.35
2018-08-17T20:10:07.250Z,23.39
2018-08-17T20:12:34.544Z,23.33
2018-08-17T20:15:02.729Z,23.28
2018-08-17T20:17:29.980Z,23.29
2018-08-17T20:19:57.271Z,23.36
2018-08-17T20:22:24.532Z,23.41
2018-08-17T20:24:51.834Z,23.20
2018-08-17T20:27:19.873Z,23.07
2018-08-17T20:29:47.290Z,23.03
2018-08-17T20:32:14.635Z,22.96
2018-08-17T20:34:45.548Z,22.83
2018-08-17T20:37:13.994Z,22.78
2018-08-17T20:39:42.507Z,22.67
2018-08-17T20:42:10.316Z,22.60
2018-08-17T20:44:37.662Z,22.44
2018-08-17T20:47:05.077Z,22.44
2018-08-17T20:49:32.332Z,22.42
2018-08-17T20:52:01.451Z,22.42
2018-08-17T20:54:29.513Z,22.39
2018-08-17T20:56:56.928Z,22.38
2018-08-17T20:59:24.287Z,22.28
2018-08-17T21:01:51.789Z,22.22
2018-08-17T21:04:19.135Z,22.17
2018-08-17T21:06:46.760Z,22.09
2018-08-17T21:09:14.115Z,21.95
2018-08-17T21:11:41.511Z,21.89
2018-08-17T21:14:08.835Z,21.92
2018-08-17T21:16:36.208Z,21.94
2018-08-17T21:19:03.701Z,21.85
2018-08-17T21:21:31.043Z,21.84
2018-08-17T21:23:58.423Z,21.85
2018-08-17T21:26:26.130Z,21.73
2018-08-17T21:28:53.515Z,21.67
2018-08-17T21:31:20.775Z,21.66
2018-08-17T21:33:48.113Z,21.68
2018-08-17T21:36:15.411Z,21.72
2018-08-17T21:38:42.883Z,21.84
2018-08-17T21:41:10.191Z,21.80
2018-08-17T21:43:37.577Z,21.79
2018-08-17T21:46:05.727Z,21.82
2018-08-17T21:48:36.163Z,21.69
2018-08-17T21:51:03.566Z,21.60
2018-08-17T21:53:30.899Z,21.59
2018-08-17T21:55:58.159Z,21.60
2018-08-17T21:58:25.499Z,21.51
2018-08-17T22:00:52.880Z,21.43
2018-08-17T22:03:32.987Z,21.37
2018-08-17T22:06:00.493Z,21.35
2018-08-17T22:08:27.779Z,21.20
2018-08-17T22:10:55.121Z,21.06
2018-08-17T22:13:31.308Z,21.02
2018-08-17T22:15:58.907Z,20.92
2018-08-17T22:18:26.648Z,20.92
2018-08-17T22:20:54.009Z,20.85
2018-08-17T22:23:21.278Z,20.84
2018-08-17T22:25:48.613Z,20.71
2018-08-17T22:28:16.081Z,20.70
2018-08-17T22:30:43.361Z,20.59
2018-08-17T22:33:11.077Z,20.53
2018-08-17T22:35:38.395Z,20.54
2018-08-17T22:38:05.742Z,20.57
2018-08-17T22:40:32.999Z,20.58
2018-08-17T22:43:00.312Z,20.58
2018-08-17T22:45:27.652Z,20.55
2018-08-17T22:47:54.998Z,20.58
2018-08-17T22:50:22.318Z,20.58
2018-08-17T22:52:49.705Z,20.47
2018-08-17T22:55:17.105Z,20.35
2018-08-17T22:57:44.293Z,20.41
2018-08-17T23:00:19.547Z,20.52
2018-08-17T23:02:48.029Z,20.47
2018-08-17T23:05:17.263Z,20.51
2018-08-17T23:07:44.595Z,20.61
2018-08-17T23:10:18.031Z,20.56
2018-08-17T23:12:46.287Z,20.61
2018-08-17T23:15:13.754Z,20.71
2018-08-17T23:17:44.623Z,20.70
2018-08-17T23:20:11.923Z,20.79
2018-08-17T23:22:46.456Z,20.91
2018-08-17T23:25:14.007Z,20.85
2018-08-17T23:27:41.238Z,20.78
2018-08-17T23:30:08.650Z,20.65
2018-08-17T23:32:35.855Z,20.68
2018-08-17T23:35:03.203Z,20.57
2018-08-17T23:37:30.491Z,20.50
2018-08-17T23:39:57.709Z,20.34
2018-08-17T23:42:24.973Z,20.27
2018-08-17T23:44:52.294Z,20.30
2018-08-17T23:47:19.604Z,20.31
2018-08-17T23:49:46.862Z,20.32
2018-08-17T23:52:14.139Z,20.19
2018-08-17T23:54:41.425Z,20.01
2018-08-17T23:57:08.794Z,19.98
2018-08-17T23:59:36.036Z,19.82
